Gilman, Illinois
Current Conditions -  °F | °C
As of 2:55 PM on Thursday 20 Nov 2014 (Local Time) from KIKK Reporting Station
Clear Clear  
Wind Chill: 17°   Ceiling: Unl
Heat Index: 30°   Visibility: 10mi
Dew Point:   Wind: 21mph
Humidity: 40%   Direction: 260°W
Pressure: 30.12"   Gusts: 25mph
Location:  40.77°N, 87.99°W
Report Text: KIKK 202055Z AUTO 26018G22KT 10SM CLR M01/M13 A3012 RMK AO2 T10101130
Loading
Personal Weather Stations






























Interactive Weather Map New forecast layout! Learn more

10-Day Weather Forecast

Advertisements
Track Severe Weather on mobile